sensor_id;sensor_type;location;lat;lon;timestamp;temperature;humidity
8537;DHT22;4306;50.210;10.628;2022-12-07T00:00:19;2.50;99.90
8537;DHT22;4306;50.210;10.628;2022-12-07T00:02:46;2.50;99.90
8537;DHT22;4306;50.210;10.628;2022-12-07T00:05:13;2.40;99.90
8537;DHT22;4306;50.210;10.628;2022-12-07T00:07:41;2.30;99.90
8537;DHT22;4306;50.210;10.628;2022-12-07T00:10:08;2.40;99.90
8537;DHT22;4306;50.210;10.628;2022-12-07T00:12:35;2.40;99.90
8537;DHT22;4306;50.210;10.628;2022-12-07T00:15:02;2.50;99.90
8537;DHT22;4306;50.210;10.628;2022-12-07T00:17:29;2.40;99.90
8537;DHT22;4306;50.210;10.628;2022-12-07T00:19:56;2.50;99.90
8537;DHT22;4306;50.210;10.628;2022-12-07T00:22:22;2.50;99.90
8537;DHT22;4306;50.210;10.628;2022-12-07T00:24:51;2.50;99.90
8537;DHT22;4306;50.210;10.628;2022-12-07T00:27:17;2.50;99.90
8537;DHT22;4306;50.210;10.628;2022-12-07T00:29:44;2.50;99.90
8537;DHT22;4306;50.210;10.628;2022-12-07T00:32:11;2.50;99.90
8537;DHT22;4306;50.210;10.628;2022-12-07T00:34:38;2.50;99.90
8537;DHT22;4306;50.210;10.628;2022-12-07T00:37:05;2.60;99.90
8537;DHT22;4306;50.210;10.628;2022-12-07T00:39:32;2.50;99.90
8537;DHT22;4306;50.210;10.628;2022-12-07T00:42:00;2.60;99.90
8537;DHT22;4306;50.210;10.628;2022-12-07T00:44:27;2.60;99.90
8537;DHT22;4306;50.210;10.628;2022-12-07T00:46:53;2.50;99.90
8537;DHT22;4306;50.210;10.628;2022-12-07T00:49:21;2.60;99.90
8537;DHT22;4306;50.210;10.628;2022-12-07T00:51:48;2.60;99.90
8537;DHT22;4306;50.210;10.628;2022-12-07T00:54:15;2.50;99.90
8537;DHT22;4306;50.210;10.628;2022-12-07T00:56:41;2.60;99.90
8537;DHT22;4306;50.210;10.628;2022-12-07T00:59:13;2.60;99.90
8537;DHT22;4306;50.210;10.628;2022-12-07T01:01:40;2.50;99.90
8537;DHT22;4306;50.210;10.628;2022-12-07T01:04:08;2.50;99.90
8537;DHT22;4306;50.210;10.628;2022-12-07T01:06:35;2.50;99.90
8537;DHT22;4306;50.210;10.628;2022-12-07T01:09:02;2.50;99.90
8537;DHT22;4306;50.210;10.628;2022-12-07T01:11:30;2.60;99.90
8537;DHT22;4306;50.210;10.628;2022-12-07T01:13:59;2.50;99.90
8537;DHT22;4306;50.210;10.628;2022-12-07T01:16:29;2.50;99.90
8537;DHT22;4306;50.210;10.628;2022-12-07T01:18:58;2.50;99.90
8537;DHT22;4306;50.210;10.628;2022-12-07T01:21:27;2.50;99.90
8537;DHT22;4306;50.210;10.628;2022-12-07T01:23:56;2.50;99.90
8537;DHT22;4306;50.210;10.628;2022-12-07T01:26:24;2.50;99.90
8537;DHT22;4306;50.210;10.628;2022-12-07T01:28:52;2.50;99.90
8537;DHT22;4306;50.210;10.628;2022-12-07T01:31:22;2.50;99.90
8537;DHT22;4306;50.210;10.628;2022-12-07T01:33:52;2.50;99.90
8537;DHT22;4306;50.210;10.628;2022-12-07T01:36:21;2.50;99.90
8537;DHT22;4306;50.210;10.628;2022-12-07T01:38:55;2.50;99.90
8537;DHT22;4306;50.210;10.628;2022-12-07T01:41:24;2.50;99.90
8537;DHT22;4306;50.210;10.628;2022-12-07T01:44:19;2.50;99.90
8537;DHT22;4306;50.210;10.628;2022-12-07T01:46:48;2.50;99.90
8537;DHT22;4306;50.210;10.628;2022-12-07T01:49:21;2.40;99.90
8537;DHT22;4306;50.210;10.628;2022-12-07T01:51:51;2.40;99.90
8537;DHT22;4306;50.210;10.628;2022-12-07T01:54:20;2.30;99.90
8537;DHT22;4306;50.210;10.628;2022-12-07T01:56:51;2.30;99.90
8537;DHT22;4306;50.210;10.628;2022-12-07T01:59:23;2.30;99.90
8537;DHT22;4306;50.210;10.628;2022-12-07T02:01:51;2.30;99.90
8537;DHT22;4306;50.210;10.628;2022-12-07T02:04:20;2.30;99.90
8537;DHT22;4306;50.210;10.628;2022-12-07T02:06:48;2.30;99.90
8537;DHT22;4306;50.210;10.628;2022-12-07T02:09:15;2.30;99.90
8537;DHT22;4306;50.210;10.628;2022-12-07T02:11:42;2.20;99.90
8537;DHT22;4306;50.210;10.628;2022-12-07T02:14:09;2.30;99.90
8537;DHT22;4306;50.210;10.628;2022-12-07T02:16:45;2.30;99.90
8537;DHT22;4306;50.210;10.628;2022-12-07T02:22:21;2.30;99.90
8537;DHT22;4306;50.210;10.628;2022-12-07T02:24:58;2.20;99.90
8537;DHT22;4306;50.210;10.628;2022-12-07T02:27:43;2.10;99.90
8537;DHT22;4306;50.210;10.628;2022-12-07T02:30:14;2.20;99.90
8537;DHT22;4306;50.210;10.628;2022-12-07T02:32:46;2.20;99.90
8537;DHT22;4306;50.210;10.628;2022-12-07T02:35:19;2.10;99.90
8537;DHT22;4306;50.210;10.628;2022-12-07T02:37:54;2.20;99.90
8537;DHT22;4306;50.210;10.628;2022-12-07T02:40:27;2.20;99.90
8537;DHT22;4306;50.210;10.628;2022-12-07T02:43:00;2.20;99.90
8537;DHT22;4306;50.210;10.628;2022-12-07T02:45:31;2.20;99.90
8537;DHT22;4306;50.210;10.628;2022-12-07T02:48:00;2.20;99.90
8537;DHT22;4306;50.210;10.628;2022-12-07T02:50:27;2.20;99.90
8537;DHT22;4306;50.210;10.628;2022-12-07T02:52:55;2.20;99.90
8537;DHT22;4306;50.210;10.628;2022-12-07T02:55:25;2.20;99.90
8537;DHT22;4306;50.210;10.628;2022-12-07T02:58:23;2.20;99.90
8537;DHT22;4306;50.210;10.628;2022-12-07T03:01:04;2.20;99.90
8537;DHT22;4306;50.210;10.628;2022-12-07T03:03:31;2.20;99.90
8537;DHT22;4306;50.210;10.628;2022-12-07T03:06:07;2.20;99.90
8537;DHT22;4306;50.210;10.628;2022-12-07T03:08:46;2.20;99.90
8537;DHT22;4306;50.210;10.628;2022-12-07T03:11:17;2.20;99.90
8537;DHT22;4306;50.210;10.628;2022-12-07T03:13:50;2.20;99.90
8537;DHT22;4306;50.210;10.628;2022-12-07T03:16:25;2.10;99.90
8537;DHT22;4306;50.210;10.628;2022-12-07T03:18:55;2.10;99.90
8537;DHT22;4306;50.210;10.628;2022-12-07T03:21:26;2.10;99.90
8537;DHT22;4306;50.210;10.628;2022-12-07T03:23:56;2.10;99.90
8537;DHT22;4306;50.210;10.628;2022-12-07T03:26:28;2.10;99.90
8537;DHT22;4306;50.210;10.628;2022-12-07T03:29:01;2.20;99.90
8537;DHT22;4306;50.210;10.628;2022-12-07T03:31:32;2.10;99.90
8537;DHT22;4306;50.210;10.628;2022-12-07T03:34:04;2.10;99.90
8537;DHT22;4306;50.210;10.628;2022-12-07T03:36:37;2.20;99.90
8537;DHT22;4306;50.210;10.628;2022-12-07T03:39:13;2.20;99.90
8537;DHT22;4306;50.210;10.628;2022-12-07T03:41:43;2.20;99.90
8537;DHT22;4306;50.210;10.628;2022-12-07T03:44:11;2.10;99.90
8537;DHT22;4306;50.210;10.628;2022-12-07T03:46:44;2.10;99.90
8537;DHT22;4306;50.210;10.628;2022-12-07T03:49:16;2.10;99.90
8537;DHT22;4306;50.210;10.628;2022-12-07T03:51:49;2.20;99.90
8537;DHT22;4306;50.210;10.628;2022-12-07T03:54:21;2.10;99.90
8537;DHT22;4306;50.210;10.628;2022-12-07T03:56:50;2.10;99.90
8537;DHT22;4306;50.210;10.628;2022-12-07T03:59:18;2.10;99.90
8537;DHT22;4306;50.210;10.628;2022-12-07T04:01:53;2.10;99.90
8537;DHT22;4306;50.210;10.628;2022-12-07T04:04:20;2.10;99.90
8537;DHT22;4306;50.210;10.628;2022-12-07T04:06:47;2.10;99.90
8537;DHT22;4306;50.210;10.628;2022-12-07T04:09:14;2.10;99.90
8537;DHT22;4306;50.210;10.628;2022-12-07T04:11:41;2.10;99.90
8537;DHT22;4306;50.210;10.628;2022-12-07T04:14:07;2.10;99.90
8537;DHT22;4306;50.210;10.628;2022-12-07T04:16:48;2.10;99.90
8537;DHT22;4306;50.210;10.628;2022-12-07T04:19:16;2.10;99.90
8537;DHT22;4306;50.210;10.628;2022-12-07T04:21:43;2.10;99.90
8537;DHT22;4306;50.210;10.628;2022-12-07T04:24:12;2.10;99.90
8537;DHT22;4306;50.210;10.628;2022-12-07T04:26:39;2.00;99.90
8537;DHT22;4306;50.210;10.628;2022-12-07T04:29:06;2.10;99.90
8537;DHT22;4306;50.210;10.628;2022-12-07T04:31:33;2.10;99.90
8537;DHT22;4306;50.210;10.628;2022-12-07T04:34:01;2.00;99.90
8537;DHT22;4306;50.210;10.628;2022-12-07T04:36:28;2.10;99.90
8537;DHT22;4306;50.210;10.628;2022-12-07T04:38:56;2.10;99.90
8537;DHT22;4306;50.210;10.628;2022-12-07T04:41:23;2.10;99.90
8537;DHT22;4306;50.210;10.628;2022-12-07T04:43:54;2.10;99.90
8537;DHT22;4306;50.210;10.628;2022-12-07T04:46:22;2.10;99.90
8537;DHT22;4306;50.210;10.628;2022-12-07T04:48:49;2.10;99.90
8537;DHT22;4306;50.210;10.628;2022-12-07T04:51:21;2.10;99.90
8537;DHT22;4306;50.210;10.628;2022-12-07T04:53:48;2.00;99.90
8537;DHT22;4306;50.210;10.628;2022-12-07T04:56:16;2.00;99.90
8537;DHT22;4306;50.210;10.628;2022-12-07T04:58:44;2.00;99.90
8537;DHT22;4306;50.210;10.628;2022-12-07T05:01:11;2.00;99.90
8537;DHT22;4306;50.210;10.628;2022-12-07T05:03:38;2.00;99.90
8537;DHT22;4306;50.210;10.628;2022-12-07T05:06:06;2.00;99.90
8537;DHT22;4306;50.210;10.628;2022-12-07T05:08:34;2.00;99.90
8537;DHT22;4306;50.210;10.628;2022-12-07T05:11:02;2.00;99.90
8537;DHT22;4306;50.210;10.628;2022-12-07T05:13:29;2.00;99.90
8537;DHT22;4306;50.210;10.628;2022-12-07T05:15:56;2.00;99.90
8537;DHT22;4306;50.210;10.628;2022-12-07T05:18:23;1.90;99.90
8537;DHT22;4306;50.210;10.628;2022-12-07T05:20:50;1.90;99.90
8537;DHT22;4306;50.210;10.628;2022-12-07T05:23:17;1.90;99.90
8537;DHT22;4306;50.210;10.628;2022-12-07T05:25:46;1.90;99.90
8537;DHT22;4306;50.210;10.628;2022-12-07T05:28:13;2.00;99.90
8537;DHT22;4306;50.210;10.628;2022-12-07T05:30:40;2.00;99.90
8537;DHT22;4306;50.210;10.628;2022-12-07T05:33:07;2.00;99.90
8537;DHT22;4306;50.210;10.628;2022-12-07T05:35:34;2.10;99.90
8537;DHT22;4306;50.210;10.628;2022-12-07T05:38:00;2.00;99.90
8537;DHT22;4306;50.210;10.628;2022-12-07T05:40:27;2.00;99.90
8537;DHT22;4306;50.210;10.628;2022-12-07T05:42:56;2.00;99.90
8537;DHT22;4306;50.210;10.628;2022-12-07T05:45:22;2.10;99.90
8537;DHT22;4306;50.210;10.628;2022-12-07T05:47:49;2.10;99.90
8537;DHT22;4306;50.210;10.628;2022-12-07T05:50:16;2.10;99.90
8537;DHT22;4306;50.210;10.628;2022-12-07T05:52:43;2.10;99.90
8537;DHT22;4306;50.210;10.628;2022-12-07T05:55:10;2.10;99.90
8537;DHT22;4306;50.210;10.628;2022-12-07T05:57:37;2.20;99.90
8537;DHT22;4306;50.210;10.628;2022-12-07T06:00:06;2.20;99.90
8537;DHT22;4306;50.210;10.628;2022-12-07T06:02:32;2.20;99.90
8537;DHT22;4306;50.210;10.628;2022-12-07T06:04:59;2.30;99.90
8537;DHT22;4306;50.210;10.628;2022-12-07T06:07:26;2.30;99.90
8537;DHT22;4306;50.210;10.628;2022-12-07T06:09:53;2.30;99.90
8537;DHT22;4306;50.210;10.628;2022-12-07T06:12:19;2.30;99.90
8537;DHT22;4306;50.210;10.628;2022-12-07T06:15:00;2.30;99.90
8537;DHT22;4306;50.210;10.628;2022-12-07T06:17:29;2.30;99.90
8537;DHT22;4306;50.210;10.628;2022-12-07T06:19:57;2.40;99.90
8537;DHT22;4306;50.210;10.628;2022-12-07T06:22:24;2.40;99.90
8537;DHT22;4306;50.210;10.628;2022-12-07T06:24:51;2.40;99.90
8537;DHT22;4306;50.210;10.628;2022-12-07T06:27:18;2.40;99.90
8537;DHT22;4306;50.210;10.628;2022-12-07T06:29:45;2.40;99.90
8537;DHT22;4306;50.210;10.628;2022-12-07T06:32:11;2.30;99.90
8537;DHT22;4306;50.210;10.628;2022-12-07T06:34:40;2.30;99.90
8537;DHT22;4306;50.210;10.628;2022-12-07T06:37:06;2.40;99.90
8537;DHT22;4306;50.210;10.628;2022-12-07T06:39:33;2.40;99.90
8537;DHT22;4306;50.210;10.628;2022-12-07T06:42:00;2.30;99.90
8537;DHT22;4306;50.210;10.628;2022-12-07T06:44:27;2.30;99.90
8537;DHT22;4306;50.210;10.628;2022-12-07T06:46:54;2.40;99.90
8537;DHT22;4306;50.210;10.628;2022-12-07T06:49:21;2.40;99.90
8537;DHT22;4306;50.210;10.628;2022-12-07T06:51:50;2.40;99.90
8537;DHT22;4306;50.210;10.628;2022-12-07T06:54:17;2.40;99.90
8537;DHT22;4306;50.210;10.628;2022-12-07T06:56:44;2.40;99.90
8537;DHT22;4306;50.210;10.628;2022-12-07T06:59:11;2.40;99.90
8537;DHT22;4306;50.210;10.628;2022-12-07T07:01:38;2.50;99.90
8537;DHT22;4306;50.210;10.628;2022-12-07T07:04:05;2.50;99.90
8537;DHT22;4306;50.210;10.628;2022-12-07T07:06:32;2.50;99.90
8537;DHT22;4306;50.210;10.628;2022-12-07T07:09:00;2.50;99.90
8537;DHT22;4306;50.210;10.628;2022-12-07T07:11:27;2.50;99.90
8537;DHT22;4306;50.210;10.628;2022-12-07T07:13:54;2.50;99.90
8537;DHT22;4306;50.210;10.628;2022-12-07T07:16:23;2.50;99.90
8537;DHT22;4306;50.210;10.628;2022-12-07T07:18:50;2.50;99.90
8537;DHT22;4306;50.210;10.628;2022-12-07T07:21:17;2.50;99.90
8537;DHT22;4306;50.210;10.628;2022-12-07T07:23:44;2.50;99.90
8537;DHT22;4306;50.210;10.628;2022-12-07T07:26:12;2.50;99.90
8537;DHT22;4306;50.210;10.628;2022-12-07T07:28:39;2.60;99.90
8537;DHT22;4306;50.210;10.628;2022-12-07T07:31:06;2.50;99.90
8537;DHT22;4306;50.210;10.628;2022-12-07T07:33:33;2.60;99.90
8537;DHT22;4306;50.210;10.628;2022-12-07T07:35:59;2.50;99.90
8537;DHT22;4306;50.210;10.628;2022-12-07T07:38:26;2.60;99.90
8537;DHT22;4306;50.210;10.628;2022-12-07T07:40:53;2.60;99.90
8537;DHT22;4306;50.210;10.628;2022-12-07T07:43:21;2.60;99.90
8537;DHT22;4306;50.210;10.628;2022-12-07T07:45:48;2.60;99.90
8537;DHT22;4306;50.210;10.628;2022-12-07T07:48:18;2.60;99.90
8537;DHT22;4306;50.210;10.628;2022-12-07T07:50:45;2.60;99.90
8537;DHT22;4306;50.210;10.628;2022-12-07T07:53:12;2.60;99.90
8537;DHT22;4306;50.210;10.628;2022-12-07T07:55:38;2.70;99.90
8537;DHT22;4306;50.210;10.628;2022-12-07T07:58:05;2.80;99.90
8537;DHT22;4306;50.210;10.628;2022-12-07T08:00:33;2.70;99.90
8537;DHT22;4306;50.210;10.628;2022-12-07T08:03:00;2.70;99.90
8537;DHT22;4306;50.210;10.628;2022-12-07T08:05:27;2.70;99.90
8537;DHT22;4306;50.210;10.628;2022-12-07T08:07:54;2.70;99.90
8537;DHT22;4306;50.210;10.628;2022-12-07T08:10:21;2.70;99.90
8537;DHT22;4306;50.210;10.628;2022-12-07T08:12:48;2.70;99.90
8537;DHT22;4306;50.210;10.628;2022-12-07T08:15:33;2.80;99.90
8537;DHT22;4306;50.210;10.628;2022-12-07T08:18:02;2.80;99.90
8537;DHT22;4306;50.210;10.628;2022-12-07T08:20:30;2.70;99.90
8537;DHT22;4306;50.210;10.628;2022-12-07T08:22:58;2.80;99.90
8537;DHT22;4306;50.210;10.628;2022-12-07T08:25:25;2.80;99.90
8537;DHT22;4306;50.210;10.628;2022-12-07T08:27:52;3.20;99.90
8537;DHT22;4306;50.210;10.628;2022-12-07T08:30:20;2.80;99.90
8537;DHT22;4306;50.210;10.628;2022-12-07T08:32:48;2.90;99.90
8537;DHT22;4306;50.210;10.628;2022-12-07T08:35:16;2.80;99.90
8537;DHT22;4306;50.210;10.628;2022-12-07T08:37:43;2.80;99.90
8537;DHT22;4306;50.210;10.628;2022-12-07T08:40:11;2.80;99.90
8537;DHT22;4306;50.210;10.628;2022-12-07T08:42:40;2.80;99.90
8537;DHT22;4306;50.210;10.628;2022-12-07T08:45:10;2.80;99.90
8537;DHT22;4306;50.210;10.628;2022-12-07T08:47:40;2.80;99.90
8537;DHT22;4306;50.210;10.628;2022-12-07T08:50:10;2.90;99.90
8537;DHT22;4306;50.210;10.628;2022-12-07T08:52:38;2.90;99.90
8537;DHT22;4306;50.210;10.628;2022-12-07T08:55:06;2.90;99.90
8537;DHT22;4306;50.210;10.628;2022-12-07T08:57:36;3.00;99.90
8537;DHT22;4306;50.210;10.628;2022-12-07T09:00:03;3.00;99.90
8537;DHT22;4306;50.210;10.628;2022-12-07T09:02:31;3.00;99.90
8537;DHT22;4306;50.210;10.628;2022-12-07T09:04:57;3.00;99.90
8537;DHT22;4306;50.210;10.628;2022-12-07T09:07:26;3.10;99.90
8537;DHT22;4306;50.210;10.628;2022-12-07T09:09:53;3.00;99.90
8537;DHT22;4306;50.210;10.628;2022-12-07T09:12:20;3.10;99.90
8537;DHT22;4306;50.210;10.628;2022-12-07T09:14:47;3.10;99.90
8537;DHT22;4306;50.210;10.628;2022-12-07T09:17:14;3.10;99.90
8537;DHT22;4306;50.210;10.628;2022-12-07T09:19:40;3.10;99.90
8537;DHT22;4306;50.210;10.628;2022-12-07T09:22:08;3.10;99.90
8537;DHT22;4306;50.210;10.628;2022-12-07T09:24:36;3.20;99.90
8537;DHT22;4306;50.210;10.628;2022-12-07T09:27:03;3.30;99.90
8537;DHT22;4306;50.210;10.628;2022-12-07T09:29:30;3.30;99.90
8537;DHT22;4306;50.210;10.628;2022-12-07T09:31:57;3.30;99.90
8537;DHT22;4306;50.210;10.628;2022-12-07T09:34:24;3.40;99.90
8537;DHT22;4306;50.210;10.628;2022-12-07T09:36:51;3.40;99.90
8537;DHT22;4306;50.210;10.628;2022-12-07T09:39:18;3.50;99.90
8537;DHT22;4306;50.210;10.628;2022-12-07T09:41:47;3.40;99.90
8537;DHT22;4306;50.210;10.628;2022-12-07T09:44:21;3.40;99.90
8537;DHT22;4306;50.210;10.628;2022-12-07T09:46:49;3.30;99.90
8537;DHT22;4306;50.210;10.628;2022-12-07T09:49:20;3.40;99.90
8537;DHT22;4306;50.210;10.628;2022-12-07T09:51:47;3.30;99.90
8537;DHT22;4306;50.210;10.628;2022-12-07T09:54:16;3.50;99.90
8537;DHT22;4306;50.210;10.628;2022-12-07T09:56:44;3.50;99.90
8537;DHT22;4306;50.210;10.628;2022-12-07T09:59:17;3.60;99.90
8537;DHT22;4306;50.210;10.628;2022-12-07T10:01:47;3.70;99.90
8537;DHT22;4306;50.210;10.628;2022-12-07T10:04:17;3.80;99.90
8537;DHT22;4306;50.210;10.628;2022-12-07T10:06:45;3.90;99.90
8537;DHT22;4306;50.210;10.628;2022-12-07T10:09:16;3.80;99.90
8537;DHT22;4306;50.210;10.628;2022-12-07T10:12:05;3.80;99.90
8537;DHT22;4306;50.210;10.628;2022-12-07T10:14:35;3.90;99.90
8537;DHT22;4306;50.210;10.628;2022-12-07T10:17:02;3.90;99.90
8537;DHT22;4306;50.210;10.628;2022-12-07T10:19:49;3.90;99.90
8537;DHT22;4306;50.210;10.628;2022-12-07T10:22:16;4.00;99.90
8537;DHT22;4306;50.210;10.628;2022-12-07T10:24:46;3.90;99.90
8537;DHT22;4306;50.210;10.628;2022-12-07T10:27:21;4.00;99.90
8537;DHT22;4306;50.210;10.628;2022-12-07T10:29:51;4.00;99.90
8537;DHT22;4306;50.210;10.628;2022-12-07T10:32:31;4.00;99.90
8537;DHT22;4306;50.210;10.628;2022-12-07T10:35:24;4.00;99.90
8537;DHT22;4306;50.210;10.628;2022-12-07T10:37:52;4.00;99.90
8537;DHT22;4306;50.210;10.628;2022-12-07T10:40:29;4.00;99.90
8537;DHT22;4306;50.210;10.628;2022-12-07T10:43:04;4.10;99.90
8537;DHT22;4306;50.210;10.628;2022-12-07T10:45:35;4.10;99.90
8537;DHT22;4306;50.210;10.628;2022-12-07T10:48:13;4.00;99.90
8537;DHT22;4306;50.210;10.628;2022-12-07T10:51:00;4.10;99.90
8537;DHT22;4306;50.210;10.628;2022-12-07T10:53:44;4.00;99.90
8537;DHT22;4306;50.210;10.628;2022-12-07T10:57:02;4.10;99.90
8537;DHT22;4306;50.210;10.628;2022-12-07T11:00:02;4.10;99.90
8537;DHT22;4306;50.210;10.628;2022-12-07T11:02:46;4.10;99.90
8537;DHT22;4306;50.210;10.628;2022-12-07T11:05:23;4.10;99.90
8537;DHT22;4306;50.210;10.628;2022-12-07T11:08:01;4.20;99.90
8537;DHT22;4306;50.210;10.628;2022-12-07T11:10:36;4.20;99.90
8537;DHT22;4306;50.210;10.628;2022-12-07T11:13:21;4.20;99.90
8537;DHT22;4306;50.210;10.628;2022-12-07T11:16:00;4.30;99.90
8537;DHT22;4306;50.210;10.628;2022-12-07T11:18:34;4.40;99.90
8537;DHT22;4306;50.210;10.628;2022-12-07T11:21:09;4.50;99.90
8537;DHT22;4306;50.210;10.628;2022-12-07T11:23:48;4.70;99.90
8537;DHT22;4306;50.210;10.628;2022-12-07T11:26:25;4.90;99.90
8537;DHT22;4306;50.210;10.628;2022-12-07T11:29:15;5.00;99.90
8537;DHT22;4306;50.210;10.628;2022-12-07T11:31:53;5.00;99.90
8537;DHT22;4306;50.210;10.628;2022-12-07T11:34:30;5.00;99.90
8537;DHT22;4306;50.210;10.628;2022-12-07T11:37:02;5.10;99.90
8537;DHT22;4306;50.210;10.628;2022-12-07T11:39:34;5.10;99.90
8537;DHT22;4306;50.210;10.628;2022-12-07T11:42:06;5.10;99.90
8537;DHT22;4306;50.210;10.628;2022-12-07T11:44:50;5.00;99.90
8537;DHT22;4306;50.210;10.628;2022-12-07T11:47:25;5.00;99.90
8537;DHT22;4306;50.210;10.628;2022-12-07T11:50:01;5.00;99.90
8537;DHT22;4306;50.210;10.628;2022-12-07T11:52:36;4.90;99.90
8537;DHT22;4306;50.210;10.628;2022-12-07T11:55:17;4.90;99.90
8537;DHT22;4306;50.210;10.628;2022-12-07T11:57:50;5.00;99.90
8537;DHT22;4306;50.210;10.628;2022-12-07T12:00:19;4.90;99.90
8537;DHT22;4306;50.210;10.628;2022-12-07T12:02:51;4.90;99.90
8537;DHT22;4306;50.210;10.628;2022-12-07T12:05:22;5.00;99.90
8537;DHT22;4306;50.210;10.628;2022-12-07T12:07:52;5.00;99.90
8537;DHT22;4306;50.210;10.628;2022-12-07T12:10:27;5.00;99.90
8537;DHT22;4306;50.210;10.628;2022-12-07T12:13:20;5.10;99.90
8537;DHT22;4306;50.210;10.628;2022-12-07T12:16:03;5.20;99.90
8537;DHT22;4306;50.210;10.628;2022-12-07T12:18:44;5.30;99.90
8537;DHT22;4306;50.210;10.628;2022-12-07T12:21:18;5.30;99.90
8537;DHT22;4306;50.210;10.628;2022-12-07T12:23:49;5.40;99.90
8537;DHT22;4306;50.210;10.628;2022-12-07T12:26:19;5.40;99.90
8537;DHT22;4306;50.210;10.628;2022-12-07T12:28:54;5.30;99.90
8537;DHT22;4306;50.210;10.628;2022-12-07T12:31:42;5.20;99.90
8537;DHT22;4306;50.210;10.628;2022-12-07T12:34:29;5.10;99.90
8537;DHT22;4306;50.210;10.628;2022-12-07T12:36:58;5.00;99.90
8537;DHT22;4306;50.210;10.628;2022-12-07T12:39:25;5.00;99.90
8537;DHT22;4306;50.210;10.628;2022-12-07T12:42:01;4.90;99.90
8537;DHT22;4306;50.210;10.628;2022-12-07T12:47:43;4.90;99.90
8537;DHT22;4306;50.210;10.628;2022-12-07T12:50:21;4.90;99.90
8537;DHT22;4306;50.210;10.628;2022-12-07T12:53:02;4.70;99.90
8537;DHT22;4306;50.210;10.628;2022-12-07T12:58:35;4.70;99.90
8537;DHT22;4306;50.210;10.628;2022-12-07T13:04:23;4.70;99.90
8537;DHT22;4306;50.210;10.628;2022-12-07T13:06:51;4.60;99.90
8537;DHT22;4306;50.210;10.628;2022-12-07T13:09:23;4.60;99.90
8537;DHT22;4306;50.210;10.628;2022-12-07T13:11:56;4.60;99.90
8537;DHT22;4306;50.210;10.628;2022-12-07T13:14:55;4.70;99.90
8537;DHT22;4306;50.210;10.628;2022-12-07T13:17:56;4.70;99.90
8537;DHT22;4306;50.210;10.628;2022-12-07T13:20:55;4.70;99.90
8537;DHT22;4306;50.210;10.628;2022-12-07T13:23:25;4.80;99.90
8537;DHT22;4306;50.210;10.628;2022-12-07T13:28:46;4.80;99.90
8537;DHT22;4306;50.210;10.628;2022-12-07T13:31:26;4.80;99.90
8537;DHT22;4306;50.210;10.628;2022-12-07T13:33:56;4.80;99.90
8537;DHT22;4306;50.210;10.628;2022-12-07T13:36:24;4.70;99.90
8537;DHT22;4306;50.210;10.628;2022-12-07T13:38:54;4.70;99.90
8537;DHT22;4306;50.210;10.628;2022-12-07T13:41:24;4.70;99.90
8537;DHT22;4306;50.210;10.628;2022-12-07T13:43:55;4.70;99.90
8537;DHT22;4306;50.210;10.628;2022-12-07T13:46:33;4.70;99.90
8537;DHT22;4306;50.210;10.628;2022-12-07T13:49:01;4.60;99.90
8537;DHT22;4306;50.210;10.628;2022-12-07T13:51:34;4.50;99.90
8537;DHT22;4306;50.210;10.628;2022-12-07T13:54:09;4.30;99.90
8537;DHT22;4306;50.210;10.628;2022-12-07T13:56:38;4.30;99.90
8537;DHT22;4306;50.210;10.628;2022-12-07T13:59:07;4.40;99.90
8537;DHT22;4306;50.210;10.628;2022-12-07T14:01:37;4.50;99.90
8537;DHT22;4306;50.210;10.628;2022-12-07T14:07:22;4.40;99.90
8537;DHT22;4306;50.210;10.628;2022-12-07T14:09:57;4.30;99.90
8537;DHT22;4306;50.210;10.628;2022-12-07T14:12:28;4.30;99.90
8537;DHT22;4306;50.210;10.628;2022-12-07T14:14:56;4.30;99.90
8537;DHT22;4306;50.210;10.628;2022-12-07T14:17:24;4.30;99.90
8537;DHT22;4306;50.210;10.628;2022-12-07T14:19:53;4.20;99.90
8537;DHT22;4306;50.210;10.628;2022-12-07T14:22:30;4.30;99.90
8537;DHT22;4306;50.210;10.628;2022-12-07T14:25:17;4.40;99.90
8537;DHT22;4306;50.210;10.628;2022-12-07T14:27:51;4.40;99.90
8537;DHT22;4306;50.210;10.628;2022-12-07T14:30:21;4.30;99.90
8537;DHT22;4306;50.210;10.628;2022-12-07T14:32:50;4.30;99.90
8537;DHT22;4306;50.210;10.628;2022-12-07T14:35:18;4.30;99.90
8537;DHT22;4306;50.210;10.628;2022-12-07T14:37:46;4.30;99.90
8537;DHT22;4306;50.210;10.628;2022-12-07T14:40:16;4.20;99.90
8537;DHT22;4306;50.210;10.628;2022-12-07T14:42:45;4.20;99.90
8537;DHT22;4306;50.210;10.628;2022-12-07T14:45:17;4.00;99.90
8537;DHT22;4306;50.210;10.628;2022-12-07T14:47:45;4.00;99.90
8537;DHT22;4306;50.210;10.628;2022-12-07T14:50:13;4.00;99.90
8537;DHT22;4306;50.210;10.628;2022-12-07T14:52:42;3.90;99.90
8537;DHT22;4306;50.210;10.628;2022-12-07T14:55:14;3.90;99.90
8537;DHT22;4306;50.210;10.628;2022-12-07T14:57:43;3.90;99.90
8537;DHT22;4306;50.210;10.628;2022-12-07T15:00:16;3.80;99.90
8537;DHT22;4306;50.210;10.628;2022-12-07T15:02:44;3.70;99.90
8537;DHT22;4306;50.210;10.628;2022-12-07T15:05:11;3.70;99.90
8537;DHT22;4306;50.210;10.628;2022-12-07T15:07:39;3.90;99.90
8537;DHT22;4306;50.210;10.628;2022-12-07T15:10:09;3.70;99.90
8537;DHT22;4306;50.210;10.628;2022-12-07T15:12:39;3.60;99.90
8537;DHT22;4306;50.210;10.628;2022-12-07T15:15:07;3.60;99.90
8537;DHT22;4306;50.210;10.628;2022-12-07T15:17:35;3.50;99.90
8537;DHT22;4306;50.210;10.628;2022-12-07T15:20:02;3.50;99.90
8537;DHT22;4306;50.210;10.628;2022-12-07T15:22:30;3.50;99.90
8537;DHT22;4306;50.210;10.628;2022-12-07T15:24:57;3.40;99.90
8537;DHT22;4306;50.210;10.628;2022-12-07T15:27:24;3.40;99.90
8537;DHT22;4306;50.210;10.628;2022-12-07T15:29:51;3.40;99.90
8537;DHT22;4306;50.210;10.628;2022-12-07T15:32:19;3.30;99.90
8537;DHT22;4306;50.210;10.628;2022-12-07T15:34:47;3.30;99.90
8537;DHT22;4306;50.210;10.628;2022-12-07T15:37:15;3.20;99.90
8537;DHT22;4306;50.210;10.628;2022-12-07T15:39:42;3.20;99.90
8537;DHT22;4306;50.210;10.628;2022-12-07T15:42:09;3.10;99.90
8537;DHT22;4306;50.210;10.628;2022-12-07T15:44:36;3.20;99.90
8537;DHT22;4306;50.210;10.628;2022-12-07T15:47:20;3.10;99.90
8537;DHT22;4306;50.210;10.628;2022-12-07T15:49:49;3.10;99.90
8537;DHT22;4306;50.210;10.628;2022-12-07T15:52:15;3.00;99.90
8537;DHT22;4306;50.210;10.628;2022-12-07T15:54:44;3.10;99.90
8537;DHT22;4306;50.210;10.628;2022-12-07T15:57:13;3.00;99.90
8537;DHT22;4306;50.210;10.628;2022-12-07T15:59:40;3.00;99.90
8537;DHT22;4306;50.210;10.628;2022-12-07T16:02:08;3.00;99.90
8537;DHT22;4306;50.210;10.628;2022-12-07T16:04:36;3.00;99.90
8537;DHT22;4306;50.210;10.628;2022-12-07T16:07:05;3.00;99.90
8537;DHT22;4306;50.210;10.628;2022-12-07T16:09:32;3.00;99.90
8537;DHT22;4306;50.210;10.628;2022-12-07T16:11:59;3.00;99.90
8537;DHT22;4306;50.210;10.628;2022-12-07T16:14:25;2.90;99.90
8537;DHT22;4306;50.210;10.628;2022-12-07T16:16:52;3.00;99.90
8537;DHT22;4306;50.210;10.628;2022-12-07T16:19:20;3.00;99.90
8537;DHT22;4306;50.210;10.628;2022-12-07T16:21:47;3.00;99.90
8537;DHT22;4306;50.210;10.628;2022-12-07T16:24:15;3.00;99.90
8537;DHT22;4306;50.210;10.628;2022-12-07T16:26:42;2.90;99.90
8537;DHT22;4306;50.210;10.628;2022-12-07T16:29:11;2.90;99.90
8537;DHT22;4306;50.210;10.628;2022-12-07T16:31:38;2.90;99.90
8537;DHT22;4306;50.210;10.628;2022-12-07T16:34:06;3.00;99.90
8537;DHT22;4306;50.210;10.628;2022-12-07T16:36:33;3.00;99.90
8537;DHT22;4306;50.210;10.628;2022-12-07T16:39:01;3.00;99.90
8537;DHT22;4306;50.210;10.628;2022-12-07T16:41:29;3.00;99.90